Time;durP1;ratioP1;P1;durP2;ratioP2;P2;SDS_P1;SDS_P2;PMS_P1;PMS_P2;Temp;Humidity;BMP_temperature;BMP_pressure;BME280_temperature;BME280_humidity;BME280_pressure;Samples;Min_cycle;Max_cycle;Signal;HPM_P1;HPM_P2
2023/04/28 00:01:28;;;;;;;17.23;10.90;;;7.90;74.40;;;;;;5092762;28;20540;-72
2023/04/28 00:03:54;;;;;;;15.23;11.20;;;7.90;74.40;;;;;;5092585;28;20036;-72
2023/04/28 00:06:20;;;;;;;16.08;10.27;;;7.90;74.40;;;;;;5076077;28;20463;-72
2023/04/28 00:08:45;;;;;;;15.00;10.80;;;7.90;74.40;;;;;;5092864;28;20032;-72
2023/04/28 00:11:11;;;;;;;11.45;9.75;;;7.80;74.50;;;;;;5092788;28;20040;-72
2023/04/28 00:13:37;;;;;;;15.27;10.23;;;7.80;74.20;;;;;;5092451;28;20385;-72
2023/04/28 00:16:03;;;;;;;12.75;10.35;;;7.80;74.40;;;;;;5075410;28;20028;-72
2023/04/28 00:18:29;;;;;;;16.25;10.52;;;7.80;74.20;;;;;;5092399;28;20139;-72
2023/04/28 00:20:55;;;;;;;15.23;11.00;;;7.80;74.10;;;;;;5092330;28;20039;-72
2023/04/28 00:23:21;;;;;;;16.77;11.77;;;7.80;74.00;;;;;;5075464;28;20036;-72
2023/04/28 00:25:56;;;;;;;15.75;11.18;;;7.70;74.10;;;;;;5092167;28;20040;-72
2023/04/28 00:28:21;;;;;;;15.02;11.57;;;7.70;74.00;;;;;;5089630;28;20064;-72
2023/04/28 00:30:47;;;;;;;15.15;10.70;;;7.70;74.00;;;;;;5075185;28;20036;-72
2023/04/28 00:33:13;;;;;;;13.30;10.30;;;7.70;74.10;;;;;;5075177;28;20036;-72
2023/04/28 00:35:40;;;;;;;17.83;11.15;;;7.70;74.10;;;;;;5092200;28;20032;-72
2023/04/28 00:38:06;;;;;;;13.15;9.35;;;7.70;74.20;;;;;;5091926;28;20089;-72
2023/04/28 00:40:36;;;;;;;16.10;11.43;;;7.60;74.00;;;;;;5092152;28;20036;-72
2023/04/28 00:43:03;;;;;;;15.07;10.27;;;7.70;74.10;;;;;;5090998;28;20151;-72
2023/04/28 00:45:29;;;;;;;18.45;10.63;;;7.60;73.90;;;;;;5091865;28;20086;-72
2023/04/28 00:47:56;;;;;;;14.52;10.20;;;7.60;73.80;;;;;;5091477;28;20196;-72
2023/04/28 00:50:24;;;;;;;14.27;10.10;;;7.60;73.60;;;;;;5073863;28;20044;-72
2023/04/28 00:52:50;;;;;;;12.30;9.63;;;7.60;73.60;;;;;;5091815;28;20544;-73
2023/04/28 00:55:16;;;;;;;14.35;9.60;;;7.60;73.40;;;;;;5091884;28;20032;-72
2023/04/28 00:57:42;;;;;;;14.23;10.05;;;7.60;73.20;;;;;;5091224;28;20092;-72
2023/04/28 01:00:09;;;;;;;16.00;10.45;;;7.60;73.00;;;;;;5091335;28;20032;-72
2023/04/28 01:02:35;;;;;;;12.70;9.50;;;7.60;72.80;;;;;;5090769;28;20040;-72
2023/04/28 01:05:02;;;;;;;14.10;9.85;;;7.50;72.60;;;;;;5066444;28;20476;-72
2023/04/28 01:07:28;;;;;;;13.35;10.27;;;7.50;72.40;;;;;;5091272;28;20049;-72
2023/04/28 01:09:54;;;;;;;15.02;10.20;;;7.50;72.70;;;;;;5088658;28;20499;-72
2023/04/28 01:12:20;;;;;;;13.02;10.00;;;7.50;72.20;;;;;;5091495;28;20397;-72
2023/04/28 01:14:47;;;;;;;13.05;9.70;;;7.50;72.10;;;;;;5074781;28;20115;-72
2023/04/28 01:17:13;;;;;;;13.80;10.45;;;7.50;72.20;;;;;;5091308;28;20031;-72
2023/04/28 01:19:39;;;;;;;15.27;10.13;;;7.40;72.10;;;;;;5074231;28;20123;-72
2023/04/28 01:22:05;;;;;;;15.57;10.80;;;7.40;72.20;;;;;;5091252;28;20154;-72
2023/04/28 01:24:31;;;;;;;15.50;10.13;;;7.40;72.20;;;;;;5091115;28;20044;-72
2023/04/28 01:26:57;;;;;;;11.63;9.77;;;7.40;72.30;;;;;;5091145;28;20032;-72
2023/04/28 01:29:22;;;;;;;13.25;10.02;;;7.40;72.30;;;;;;5091304;28;20464;-72
2023/04/28 01:31:48;;;;;;;14.55;10.07;;;7.40;72.40;;;;;;5090467;28;20135;-72
2023/04/28 01:34:14;;;;;;;14.43;10.85;;;7.30;72.30;;;;;;5090929;28;20096;-72
2023/04/28 01:36:39;;;;;;;14.60;11.20;;;7.30;72.30;;;;;;5090879;28;20123;-72
2023/04/28 01:39:05;;;;;;;14.27;10.43;;;7.40;72.40;;;;;;5090605;28;20043;-72
2023/04/28 01:41:33;;;;;;;15.50;10.20;;;7.30;72.40;;;;;;5090236;28;20035;-72
2023/04/28 01:43:59;;;;;;;19.00;10.55;;;7.40;72.70;;;;;;5089829;28;20046;-72
2023/04/28 01:46:25;;;;;;;14.65;10.15;;;7.30;72.40;;;;;;5057195;28;20036;-72
2023/04/28 01:48:51;;;;;;;16.70;10.60;;;7.30;72.20;;;;;;5090673;28;20047;-72
2023/04/28 01:51:16;;;;;;;15.82;10.73;;;7.30;72.20;;;;;;5090648;28;20043;-72
2023/04/28 01:53:42;;;;;;;15.38;9.93;;;7.30;72.20;;;;;;5090429;28;20044;-72
2023/04/28 01:56:08;;;;;;;13.95;10.23;;;7.30;72.10;;;;;;5073549;28;20564;-72
2023/04/28 01:58:34;;;;;;;13.73;10.15;;;7.30;72.00;;;;;;5056866;28;20028;-72
2023/04/28 02:00:59;;;;;;;17.23;10.30;;;7.30;72.00;;;;;;5073533;28;20036;-72
2023/04/28 02:03:26;;;;;;;16.30;10.32;;;7.30;72.00;;;;;;5090486;28;20091;-72
2023/04/28 02:05:52;;;;;;;16.88;10.95;;;7.30;72.00;;;;;;5090346;28;20105;-72
2023/04/28 02:08:18;;;;;;;14.57;10.32;;;7.30;71.90;;;;;;5089694;28;20473;-72
2023/04/28 02:10:44;;;;;;;12.18;10.45;;;7.30;71.90;;;;;;5090162;28;20170;-72
2023/04/28 02:13:10;;;;;;;14.95;10.60;;;7.30;71.90;;;;;;5073205;28;20140;-72
2023/04/28 02:15:42;;;;;;;13.30;10.57;;;7.40;71.90;;;;;;5090398;28;20036;-72
2023/04/28 02:18:11;;;;;;;16.85;10.57;;;7.30;71.80;;;;;;5089929;28;20104;-72
2023/04/28 02:20:37;;;;;;;13.70;9.82;;;7.30;71.80;;;;;;5073354;28;20032;-72
2023/04/28 02:23:03;;;;;;;14.18;10.38;;;7.30;71.70;;;;;;5090147;28;20040;-72
2023/04/28 02:25:28;;;;;;;13.48;10.10;;;7.30;71.70;;;;;;5090297;28;20480;-72
2023/04/28 02:27:54;;;;;;;14.35;10.15;;;7.30;71.60;;;;;;5087774;28;20042;-72
2023/04/28 02:30:20;;;;;;;13.95;10.88;;;7.20;71.50;;;;;;5073341;28;20489;-72
2023/04/28 02:32:47;;;;;;;13.50;10.68;;;7.20;71.50;;;;;;5089720;28;20488;-72
2023/04/28 02:35:13;;;;;;;13.93;10.75;;;7.20;71.60;;;;;;5090055;28;20039;-72
2023/04/28 02:37:39;;;;;;;13.15;10.15;;;7.20;71.70;;;;;;5089859;28;20043;-72
2023/04/28 02:40:06;;;;;;;17.63;11.13;;;7.20;71.70;;;;;;5090501;28;20119;-72
2023/04/28 02:42:31;;;;;;;14.85;10.90;;;7.20;71.80;;;;;;5073705;28;20046;-72
2023/04/28 02:44:57;;;;;;;12.85;10.43;;;7.20;71.80;;;;;;5090210;28;20028;-72
2023/04/28 02:47:23;;;;;;;13.48;10.50;;;7.20;71.70;;;;;;5073082;28;20079;-72
2023/04/28 02:49:48;;;;;;;17.70;11.65;;;7.20;71.80;;;;;;5090339;28;20036;-72
2023/04/28 02:52:14;;;;;;;14.40;10.95;;;7.20;71.90;;;;;;5089465;28;20477;-72
2023/04/28 02:54:40;;;;;;;14.65;10.68;;;7.20;71.90;;;;;;5090082;28;20044;-72
2023/04/28 02:57:06;;;;;;;15.60;10.40;;;7.20;71.90;;;;;;5090187;28;20036;-72
2023/04/28 02:59:31;;;;;;;13.63;10.70;;;7.20;71.90;;;;;;5090237;28;20539;-72
2023/04/28 03:01:57;;;;;;;14.23;10.68;;;7.20;71.90;;;;;;5089462;28;20119;-72
2023/04/28 03:04:23;;;;;;;16.20;11.25;;;7.20;72.10;;;;;;5070694;28;20035;-72
2023/04/28 03:06:49;;;;;;;13.63;10.98;;;7.20;72.00;;;;;;5092554;28;20377;-72
2023/04/28 03:09:15;;;;;;;16.52;10.93;;;7.20;72.00;;;;;;5093911;28;20517;-72
2023/04/28 03:11:40;;;;;;;15.25;11.00;;;7.20;72.00;;;;;;5093726;28;20047;-72
2023/04/28 03:14:06;;;;;;;14.73;10.98;;;7.20;72.00;;;;;;5093357;28;20119;-72
2023/04/28 03:16:32;;;;;;;15.52;11.05;;;7.20;71.90;;;;;;5093542;28;20135;-72
2023/04/28 03:18:58;;;;;;;18.55;11.77;;;7.20;71.90;;;;;;5093218;28;20032;-71
2023/04/28 03:21:26;;;;;;;18.20;11.93;;;7.30;71.80;;;;;;5093359;28;20036;-72
2023/04/28 03:23:52;;;;;;;17.42;11.88;;;7.30;71.80;;;;;;5092917;28;20489;-71
2023/04/28 03:26:18;;;;;;;15.75;11.25;;;7.20;71.90;;;;;;5091161;28;20358;-72
2023/04/28 03:28:44;;;;;;;16.65;11.07;;;7.30;71.80;;;;;;5076348;28;20085;-72
2023/04/28 03:31:10;;;;;;;15.52;11.48;;;7.30;71.80;;;;;;5092724;28;20081;-72
2023/04/28 03:33:36;;;;;;;16.73;12.18;;;7.30;71.80;;;;;;5076127;28;20046;-72
2023/04/28 03:36:01;;;;;;;15.15;12.02;;;7.30;71.60;;;;;;5076492;28;20143;-72
2023/04/28 03:38:27;;;;;;;15.20;11.23;;;7.20;71.50;;;;;;5093292;28;20153;-72
2023/04/28 03:40:53;;;;;;;14.60;11.45;;;7.20;71.60;;;;;;5093149;28;20404;-72
2023/04/28 03:43:18;;;;;;;20.60;12.23;;;7.20;71.70;;;;;;5093449;28;20044;-72
2023/04/28 03:45:44;;;;;;;16.05;11.73;;;7.20;71.80;;;;;;5092778;28;20090;-72
2023/04/28 03:48:10;;;;;;;16.45;11.45;;;7.20;71.90;;;;;;5092546;28;20140;-71
2023/04/28 03:50:36;;;;;;;15.60;11.85;;;7.20;71.90;;;;;;5092935;28;20071;-72
2023/04/28 03:53:01;;;;;;;16.70;11.63;;;7.20;71.90;;;;;;5092840;28;20101;-72
2023/04/28 03:55:27;;;;;;;16.33;11.88;;;7.20;71.90;;;;;;5076530;28;20086;-72
2023/04/28 03:57:53;;;;;;;15.55;11.20;;;7.20;71.90;;;;;;5092460;28;20508;-71
2023/04/28 04:00:19;;;;;;;18.42;12.13;;;7.20;71.90;;;;;;5076058;28;20040;-72
2023/04/28 04:02:45;;;;;;;15.63;12.35;;;7.20;72.00;;;;;;5092252;28;20450;-72
2023/04/28 04:05:11;;;;;;;16.27;11.75;;;7.20;72.00;;;;;;5074966;28;20365;-72
2023/04/28 04:07:36;;;;;;;18.10;12.05;;;7.20;72.10;;;;;;5092692;28;20051;-72
2023/04/28 04:10:02;;;;;;;16.08;12.10;;;7.20;72.00;;;;;;5075807;28;20158;-72
2023/04/28 04:12:28;;;;;;;17.20;11.57;;;7.20;72.00;;;;;;5091966;28;20055;-72
2023/04/28 04:14:54;;;;;;;18.25;12.05;;;7.20;72.20;;;;;;5092206;28;20427;-71
2023/04/28 04:17:19;;;;;;;15.88;12.05;;;7.20;72.50;;;;;;5091782;28;20040;-71
2023/04/28 04:19:45;;;;;;;17.90;12.70;;;7.20;72.20;;;;;;5092342;28;20044;-72
2023/04/28 04:22:11;;;;;;;17.05;12.15;;;7.20;72.30;;;;;;5075336;28;20377;-72
2023/04/28 04:24:37;;;;;;;18.60;12.50;;;7.10;72.20;;;;;;5058811;28;20040;-71
2023/04/28 04:27:03;;;;;;;19.02;13.20;;;7.10;72.30;;;;;;5092180;28;20040;-72
2023/04/28 04:29:28;;;;;;;16.42;12.02;;;7.10;72.30;;;;;;5091927;28;20127;-71
2023/04/28 04:31:54;;;;;;;17.88;12.40;;;7.10;72.30;;;;;;5091786;28;20035;-71
2023/04/28 04:34:20;;;;;;;16.48;12.82;;;7.10;72.10;;;;;;5075351;28;20146;-72
2023/04/28 04:36:45;;;;;;;19.75;12.57;;;7.10;72.30;;;;;;5092235;28;20481;-72
2023/04/28 04:39:11;;;;;;;19.35;12.35;;;7.10;72.30;;;;;;5091713;28;20039;-72
2023/04/28 04:41:37;;;;;;;18.52;12.38;;;7.10;72.50;;;;;;5092264;28;20067;-71
2023/04/28 04:44:03;;;;;;;16.42;12.40;;;7.10;72.30;;;;;;5091746;28;20044;-72
2023/04/28 04:46:29;;;;;;;16.40;11.82;;;7.10;72.20;;;;;;5091853;28;20052;-72
2023/04/28 04:48:55;;;;;;;20.15;12.88;;;7.10;72.60;;;;;;5065074;28;20046;-72
2023/04/28 04:51:20;;;;;;;16.80;11.88;;;7.10;72.10;;;;;;5091508;28;20109;-72
2023/04/28 04:53:46;;;;;;;14.95;11.82;;;7.10;72.30;;;;;;5091413;28;20036;-72
2023/04/28 04:56:12;;;;;;;18.23;12.52;;;7.10;72.20;;;;;;5091914;28;20036;-72
2023/04/28 04:58:37;;;;;;;17.98;11.88;;;7.20;72.20;;;;;;5091242;28;20034;-71
2023/04/28 05:01:03;;;;;;;17.92;12.40;;;7.20;72.20;;;;;;5074435;28;20039;-72
2023/04/28 05:03:29;;;;;;;17.95;12.38;;;7.20;72.30;;;;;;5074995;28;20115;-72
2023/04/28 05:05:54;;;;;;;21.20;12.52;;;7.20;72.50;;;;;;5091243;28;20080;-72
2023/04/28 05:08:20;;;;;;;19.38;13.07;;;7.20;72.40;;;;;;5091394;28;20040;-72
2023/04/28 05:10:46;;;;;;;19.60;12.07;;;7.20;72.20;;;;;;5091452;28;20047;-71
2023/04/28 05:13:12;;;;;;;18.23;11.50;;;7.30;72.20;;;;;;5091413;28;20409;-71
2023/04/28 05:15:37;;;;;;;18.45;12.40;;;7.20;72.20;;;;;;5057288;28;20048;-72
2023/04/28 05:18:08;;;;;;;20.50;11.43;;;7.30;72.00;;;;;;5071767;28;20028;-72
2023/04/28 05:20:34;;;;;;;19.80;11.73;;;7.30;71.80;;;;;;5091503;28;20388;-72
2023/04/28 05:23:00;;;;;;;18.95;12.82;;;7.30;71.80;;;;;;5074550;28;20036;-72
2023/04/28 05:25:25;;;;;;;15.45;11.65;;;7.30;72.00;;;;;;5090839;28;20127;-72
2023/04/28 05:27:51;;;;;;;18.17;12.80;;;7.40;72.30;;;;;;5090842;28;20060;-71
2023/04/28 05:30:17;;;;;;;20.10;12.23;;;7.40;72.20;;;;;;5090683;28;20370;-72
2023/04/28 05:32:42;;;;;;;16.50;11.50;;;7.40;72.30;;;;;;5074236;28;20044;-72
2023/04/28 05:35:08;;;;;;;17.52;11.73;;;7.40;72.40;;;;;;5090757;28;20529;-71
2023/04/28 05:37:36;;;;;;;21.25;12.45;;;7.40;72.30;;;;;;5090916;28;20040;-71
2023/04/28 05:40:02;;;;;;;16.00;11.45;;;7.40;72.40;;;;;;5091035;28;20110;-72
2023/04/28 05:42:28;;;;;;;19.27;12.57;;;7.40;72.10;;;;;;5091079;28;20040;-72
2023/04/28 05:44:54;;;;;;;15.80;11.95;;;7.40;72.10;;;;;;5090495;28;20042;-72
2023/04/28 05:47:20;;;;;;;15.10;11.32;;;7.40;72.20;;;;;;5090777;28;20084;-71
2023/04/28 05:49:46;;;;;;;14.77;10.82;;;7.50;72.40;;;;;;5090960;28;20048;-71
2023/04/28 05:52:11;;;;;;;15.30;11.13;;;7.50;72.30;;;;;;5073458;28;20481;-72
2023/04/28 05:54:37;;;;;;;15.18;11.10;;;7.50;72.40;;;;;;5073628;28;20075;-72
2023/04/28 05:57:03;;;;;;;18.15;11.98;;;7.50;72.20;;;;;;5074152;28;20028;-71
2023/04/28 05:59:30;;;;;;;16.58;11.45;;;7.50;72.30;;;;;;5090433;28;20040;-72
2023/04/28 06:01:56;;;;;;;17.17;11.93;;;7.50;72.10;;;;;;5073615;28;20481;-71
2023/04/28 06:04:21;;;;;;;17.60;11.25;;;7.60;72.20;;;;;;5073478;28;20047;-71
2023/04/28 06:06:47;;;;;;;15.25;10.48;;;7.50;72.30;;;;;;5090440;28;20054;-71
2023/04/28 06:09:13;;;;;;;17.13;10.75;;;7.60;72.30;;;;;;5073880;28;20040;-71
2023/04/28 06:11:38;;;;;;;14.30;10.73;;;7.60;72.00;;;;;;5090545;28;20046;-71
2023/04/28 06:14:04;;;;;;;16.13;11.10;;;7.60;71.90;;;;;;5090138;28;20039;-71
2023/04/28 06:16:30;;;;;;;17.35;11.20;;;7.60;71.90;;;;;;5090238;28;20032;-70
2023/04/28 06:18:56;;;;;;;15.52;10.20;;;7.70;72.00;;;;;;5056351;28;20036;-70
2023/04/28 06:21:23;;;;;;;15.70;10.95;;;7.60;71.80;;;;;;5090172;28;20074;-70
2023/04/28 06:23:49;;;;;;;14.20;10.30;;;7.70;71.70;;;;;;5090178;28;20044;-71
2023/04/28 06:26:15;;;;;;;16.02;11.57;;;7.70;71.50;;;;;;5070854;28;20127;-71
2023/04/28 06:28:41;;;;;;;12.85;10.93;;;7.70;71.50;;;;;;5090346;28;20370;-71
2023/04/28 06:31:07;;;;;;;14.60;10.55;;;7.70;71.60;;;;;;5091185;28;20082;-71
2023/04/28 06:33:33;;;;;;;15.88;10.85;;;7.70;71.80;;;;;;5073558;28;20047;-71
2023/04/28 06:35:58;;;;;;;15.82;11.35;;;7.70;72.10;;;;;;5090050;28;20377;-71
2023/04/28 06:38:24;;;;;;;16.00;11.30;;;7.70;72.10;;;;;;5090304;28;20044;-71
2023/04/28 06:40:50;;;;;;;17.48;10.65;;;7.80;72.10;;;;;;5091848;28;20078;-71
2023/04/28 06:43:16;;;;;;;15.25;11.32;;;7.80;72.00;;;;;;5094370;28;20047;-70
2023/04/28 06:45:41;;;;;;;15.13;11.48;;;7.80;71.90;;;;;;5093400;28;20039;-71
2023/04/28 06:48:07;;;;;;;15.02;11.25;;;7.80;71.90;;;;;;5093890;28;20064;-71
2023/04/28 06:50:33;;;;;;;15.27;11.02;;;7.80;71.90;;;;;;5088670;28;20055;-71
2023/04/28 06:53:00;;;;;;;14.95;11.73;;;7.90;72.20;;;;;;5093689;28;20040;-74
2023/04/28 06:55:25;;;;;;;19.27;11.82;;;7.90;72.10;;;;;;5094406;28;20042;-73
2023/04/28 06:57:51;;;;;;;18.70;13.40;;;7.90;72.30;;;;;;5093305;28;20123;-73
2023/04/28 07:00:17;;;;;;;16.88;12.15;;;7.90;72.40;;;;;;5077076;28;20043;-74
2023/04/28 07:02:43;;;;;;;16.50;10.73;;;8.00;72.60;;;;;;5094069;28;20024;-74
2023/04/28 07:05:09;;;;;;;16.23;11.43;;;8.00;72.70;;;;;;5093909;28;20064;-74
2023/04/28 07:07:37;;;;;;;14.15;10.00;;;8.10;72.50;;;;;;5092421;28;20107;-73
2023/04/28 07:10:03;;;;;;;14.05;10.82;;;8.10;72.50;;;;;;5093515;28;20036;-73
2023/04/28 07:12:29;;;;;;;14.02;10.93;;;8.20;72.40;;;;;;5093359;28;20032;-73
2023/04/28 07:14:55;;;;;;;12.77;10.05;;;8.20;72.30;;;;;;5076905;28;20507;-73
2023/04/28 07:17:20;;;;;;;13.80;10.55;;;8.20;72.20;;;;;;5093550;28;20119;-74
2023/04/28 07:19:48;;;;;;;14.50;10.27;;;8.20;72.70;;;;;;5076942;28;20040;-74
2023/04/28 07:22:14;;;;;;;14.40;10.20;;;8.30;72.80;;;;;;5093298;28;20036;-73
2023/04/28 07:24:40;;;;;;;17.33;9.68;;;8.40;73.00;;;;;;5093781;28;20046;-73
2023/04/28 07:27:05;;;;;;;13.70;10.00;;;8.50;72.80;;;;;;5093114;28;20039;-73
2023/04/28 07:29:33;;;;;;;13.57;9.90;;;8.50;72.30;;;;;;5093039;28;20043;-73
2023/04/28 07:32:00;;;;;;;13.10;9.00;;;8.60;71.70;;;;;;5093155;28;20131;-73
2023/04/28 07:34:27;;;;;;;11.85;8.70;;;8.70;71.60;;;;;;5092604;28;20481;-73
2023/04/28 07:36:53;;;;;;;16.40;10.30;;;8.80;71.50;;;;;;5069214;28;20047;-74
2023/04/28 07:39:18;;;;;;;14.30;9.57;;;8.80;71.00;;;;;;5058221;28;20039;-73
2023/04/28 07:41:44;;;;;;;14.05;9.52;;;8.90;70.50;;;;;;5092918;28;20032;-73
2023/04/28 07:44:10;;;;;;;12.73;8.98;;;8.90;70.60;;;;;;5092893;28;20047;-73
2023/04/28 07:46:36;;;;;;;13.85;9.40;;;9.00;70.60;;;;;;5076213;28;20414;-83
2023/04/28 07:49:03;;;;;;;13.32;9.10;;;9.00;70.60;;;;;;5044482;28;20545;-81
2023/04/28 07:51:30;;;;;;;15.43;10.20;;;9.10;70.60;;;;;;5077148;28;20039;-82
2023/04/28 07:53:56;;;;;;;14.90;10.55;;;9.10;70.70;;;;;;5093973;28;20047;-82
2023/04/28 07:56:23;;;;;;;15.95;9.82;;;9.20;70.30;;;;;;5060899;28;20032;-81
2023/04/28 07:58:50;;;;;;;14.85;9.65;;;9.20;70.50;;;;;;5077342;28;20153;-81
2023/04/28 08:01:16;;;;;;;14.63;9.85;;;9.20;70.40;;;;;;5077514;28;20043;-82
2023/04/28 08:03:41;;;;;;;12.85;9.73;;;9.20;70.80;;;;;;5077424;28;20123;-81
2023/04/28 08:06:07;;;;;;;12.95;9.10;;;9.20;70.90;;;;;;5060609;28;20189;-81
2023/04/28 08:08:34;;;;;;;12.48;10.35;;;9.30;71.10;;;;;;5094141;28;20040;-81
2023/04/28 08:11:00;;;;;;;14.00;10.70;;;9.30;71.50;;;;;;5060764;28;20480;-81
2023/04/28 08:13:27;;;;;;;17.55;11.07;;;9.30;71.80;;;;;;5093950;28;20051;-80
2023/04/28 08:15:55;;;;;;;16.52;11.98;;;9.30;72.00;;;;;;5077026;28;20035;-80
2023/04/28 08:18:22;;;;;;;14.07;10.93;;;9.40;72.70;;;;;;5076900;28;20124;-80
2023/04/28 08:20:48;;;;;;;15.20;11.20;;;9.40;73.30;;;;;;5056950;28;20112;-80
2023/04/28 08:23:15;;;;;;;15.63;9.40;;;9.40;73.70;;;;;;5075728;28;20182;-81
2023/04/28 08:25:40;;;;;;;13.60;10.23;;;9.40;74.00;;;;;;5060162;28;20043;-80
2023/04/28 08:28:07;;;;;;;16.92;10.48;;;9.40;74.00;;;;;;5076865;28;20039;-80
2023/04/28 08:30:33;;;;;;;14.38;10.98;;;9.40;74.20;;;;;;5076726;28;20127;-81
2023/04/28 08:32:59;;;;;;;14.18;9.98;;;9.40;74.20;;;;;;5077200;28;20378;-81
2023/04/28 08:35:25;;;;;;;13.68;10.25;;;9.40;74.30;;;;;;5076253;28;20040;-81
2023/04/28 08:37:52;;;;;;;16.17;10.38;;;9.50;74.40;;;;;;5060159;28;20039;-82
2023/04/28 08:40:18;;;;;;;12.60;9.15;;;9.40;73.80;;;;;;5059779;28;20053;-81
2023/04/28 08:42:47;;;;;;;12.40;9.43;;;9.50;73.50;;;;;;5076548;28;20036;-81
2023/04/28 08:45:13;;;;;;;15.50;10.60;;;9.40;73.60;;;;;;5079549;28;20039;-81
2023/04/28 08:47:48;;;;;;;14.55;10.15;;;9.50;74.10;;;;;;5056477;28;20196;-82
2023/04/28 08:50:19;;;;;;;13.63;9.85;;;9.60;74.60;;;;;;5056292;28;20041;-81
2023/04/28 08:52:46;;;;;;;12.02;9.30;;;9.60;74.10;;;;;;5088399;28;20040;-81
2023/04/28 08:55:12;;;;;;;14.98;11.25;;;9.70;73.40;;;;;;5073189;28;20090;-81
2023/04/28 08:57:42;;;;;;;13.20;10.13;;;9.80;73.00;;;;;;5085308;28;20145;-81
2023/04/28 09:00:09;;;;;;;13.60;10.38;;;9.80;72.90;;;;;;5068401;28;20039;-80
2023/04/28 09:02:36;;;;;;;12.18;9.32;;;9.90;73.20;;;;;;5068677;28;20048;-82
2023/04/28 09:05:13;;;;;;;15.57;10.00;;;9.90;73.20;;;;;;5087422;28;20427;-82
2023/04/28 09:07:39;;;;;;;12.95;9.02;;;10.00;73.00;;;;;;5069609;28;20032;-81
2023/04/28 09:10:22;;;;;;;13.48;10.00;;;10.00;73.30;;;;;;5086165;28;20040;-81
2023/04/28 09:12:52;;;;;;;13.20;9.38;;;10.20;73.60;;;;;;5067410;28;20028;-81
2023/04/28 09:15:31;;;;;;;11.93;9.60;;;10.20;73.30;;;;;;5091353;28;20046;-81
2023/04/28 09:17:57;;;;;;;14.93;10.00;;;10.30;73.00;;;;;;5092582;28;20032;-81
2023/04/28 09:20:25;;;;;;;14.70;9.75;;;10.40;72.70;;;;;;5092420;28;20089;-82
2023/04/28 09:22:52;;;;;;;12.52;9.50;;;10.40;72.50;;;;;;5075490;28;20082;-75
2023/04/28 09:25:20;;;;;;;14.73;10.23;;;10.50;72.40;;;;;;5092748;28;20075;-82
2023/04/28 09:27:46;;;;;;;11.73;9.05;;;10.60;72.60;;;;;;5076313;28;20032;-82
2023/04/28 09:30:12;;;;;;;12.98;9.38;;;10.70;71.70;;;;;;5075594;28;20071;-83
2023/04/28 09:32:38;;;;;;;13.13;9.20;;;10.80;71.40;;;;;;5075172;28;20047;-83
2023/04/28 09:35:06;;;;;;;14.75;11.45;;;10.80;71.60;;;;;;5059559;28;20040;-84
2023/04/28 09:37:33;;;;;;;13.00;9.95;;;11.00;71.80;;;;;;5084495;28;20035;-74
2023/04/28 09:40:08;;;;;;;13.18;9.35;;;11.10;72.90;;;;;;5094664;28;20507;-80
2023/04/28 09:42:40;;;;;;;12.80;9.60;;;11.30;72.70;;;;;;5058725;28;20040;-80
2023/04/28 09:45:08;;;;;;;9.95;8.75;;;11.40;71.40;;;;;;5075749;28;20039;-80
2023/04/28 09:47:36;;;;;;;10.23;8.93;;;11.50;71.30;;;;;;5075295;28;20052;-80
2023/04/28 09:50:05;;;;;;;10.65;9.50;;;11.70;71.70;;;;;;5075795;28;20513;-80
2023/04/28 10:27:16;;;;;;;11.40;8.85;;;13.20;68.10;;;;;;5172090;27;20384;-79
2023/04/28 10:29:42;;;;;;;9.38;7.93;;;14.20;67.30;;;;;;5073610;28;20039;-77
2023/04/28 10:32:19;;;;;;;10.93;8.23;;;14.20;67.60;;;;;;5104077;27;20050;-74
2023/04/28 10:34:44;;;;;;;10.15;7.38;;;14.30;67.60;;;;;;5151700;27;20468;-73
2023/04/28 10:37:13;;;;;;;12.20;9.40;;;14.30;67.70;;;;;;5117666;27;20070;-78
2023/04/28 10:40:19;;;;;;;11.75;8.48;;;14.30;67.70;;;;;;5115606;27;20031;-81
2023/04/28 10:42:53;;;;;;;12.83;8.73;;;14.40;67.80;;;;;;5111889;27;20118;-81
2023/04/28 10:45:56;;;;;;;9.00;7.82;;;14.40;67.80;;;;;;5105032;27;20441;-80
2023/04/28 10:48:35;;;;;;;14.18;8.70;;;14.50;67.80;;;;;;5144546;27;20043;-75
2023/04/28 10:51:08;;;;;;;10.23;8.18;;;14.50;68.20;;;;;;5131216;27;20417;-75
2023/04/28 10:53:50;;;;;;;10.18;8.25;;;14.50;68.00;;;;;;5151110;27;20050;-75
2023/04/28 10:56:26;;;;;;;10.75;8.48;;;14.60;68.10;;;;;;5151580;27;20047;-76
2023/04/28 10:58:56;;;;;;;10.10;9.10;;;14.60;68.10;;;;;;5151666;27;20038;-76
2023/04/28 11:01:23;;;;;;;12.15;8.32;;;14.70;67.80;;;;;;5126029;27;20490;-75
2023/04/28 11:04:03;;;;;;;12.57;8.43;;;14.70;68.00;;;;;;5149619;27;20642;-76
2023/04/28 11:06:39;;;;;;;10.68;8.23;;;14.80;67.80;;;;;;5149624;27;20030;-76
2023/04/28 11:09:14;;;;;;;14.95;9.35;;;14.80;67.60;;;;;;5130622;27;20039;-76
2023/04/28 11:11:59;;;;;;;10.85;8.77;;;14.80;67.70;;;;;;5135759;27;20604;-75
2023/04/28 11:14:28;;;;;;;9.38;8.07;;;14.90;68.30;;;;;;5126673;27;20050;-76
2023/04/28 11:17:01;;;;;;;10.57;8.30;;;14.90;68.20;;;;;;5144533;27;20747;-76
2023/04/28 11:19:48;;;;;;;12.20;8.82;;;14.90;68.20;;;;;;5131667;27;20090;-76
2023/04/28 11:22:22;;;;;;;12.15;8.73;;;14.90;68.70;;;;;;5136597;27;20467;-74
2023/04/28 11:24:59;;;;;;;11.82;9.20;;;14.90;69.40;;;;;;5158287;27;20094;-75
2023/04/28 11:27:30;;;;;;;16.67;10.50;;;14.90;69.60;;;;;;5149556;27;20062;-75
2023/04/28 11:29:56;;;;;;;12.45;9.27;;;14.80;69.90;;;;;;5126077;27;20042;-76
2023/04/28 11:32:32;;;;;;;15.05;10.00;;;14.80;70.10;;;;;;5146304;27;20049;-75
2023/04/28 11:34:58;;;;;;;12.43;9.52;;;14.80;70.30;;;;;;5146013;27;20083;-80
2023/04/28 11:37:24;;;;;;;11.27;9.38;;;14.80;70.50;;;;;;5141177;27;21359;-79
2023/04/28 11:39:50;;;;;;;11.98;8.93;;;14.80;70.70;;;;;;5122545;27;20066;-79
2023/04/28 11:42:16;;;;;;;12.07;9.45;;;14.80;70.80;;;;;;5101851;27;20486;-79
2023/04/28 11:44:52;;;;;;;12.05;10.05;;;14.70;71.10;;;;;;5141828;27;20122;-79
2023/04/28 11:47:32;;;;;;;14.32;10.45;;;14.70;71.60;;;;;;5143594;27;20034;-80
2023/04/28 11:49:58;;;;;;;17.45;10.52;;;14.70;72.40;;;;;;5131737;27;20117;-79
2023/04/28 11:52:26;;;;;;;13.00;10.02;;;14.70;72.80;;;;;;5146814;27;20131;-79
2023/04/28 11:55:01;;;;;;;15.05;10.85;;;14.70;73.00;;;;;;5120883;27;20095;-75
2023/04/28 11:57:27;;;;;;;13.63;10.93;;;14.60;73.30;;;;;;5100999;27;20476;-75
2023/04/28 12:00:10;;;;;;;13.50;10.65;;;14.60;73.70;;;;;;5144880;27;20092;-74
2023/04/28 12:02:38;;;;;;;16.35;12.10;;;14.50;74.10;;;;;;5114718;27;20042;-74
2023/04/28 12:05:07;;;;;;;15.77;12.50;;;14.50;74.50;;;;;;5144991;27;20047;-74
2023/04/28 12:07:44;;;;;;;14.73;11.95;;;14.50;75.00;;;;;;5110617;27;20095;-74
2023/04/28 12:10:12;;;;;;;15.13;12.10;;;14.40;75.30;;;;;;5142840;27;20497;-74
2023/04/28 12:12:38;;;;;;;19.00;14.65;;;14.40;75.80;;;;;;5116453;27;20122;-74
2023/04/28 12:15:05;;;;;;;18.88;14.48;;;14.40;76.40;;;;;;5116046;27;20039;-74
2023/04/28 12:17:40;;;;;;;20.02;15.45;;;14.40;76.90;;;;;;5116928;27;20035;-74
2023/04/28 12:20:11;;;;;;;21.58;15.82;;;14.30;77.30;;;;;;5124607;27;20048;-74
2023/04/28 12:22:45;;;;;;;22.15;15.57;;;14.30;77.60;;;;;;5136872;27;20041;-74
2023/04/28 12:25:12;;;;;;;20.75;18.50;;;14.30;77.90;;;;;;5136713;27;20134;-74
2023/04/28 12:27:39;;;;;;;23.48;17.58;;;14.30;78.20;;;;;;5118266;27;20035;-74
2023/04/28 12:30:22;;;;;;;21.63;19.35;;;14.20;78.70;;;;;;5140988;27;20118;-74
2023/04/28 12:32:47;;;;;;;22.73;20.15;;;14.20;79.30;;;;;;5148539;27;20039;-74
2023/04/28 12:35:13;;;;;;;31.02;22.55;;;14.20;79.30;;;;;;5136242;27;20506;-74
2023/04/28 12:37:41;;;;;;;26.23;21.33;;;14.20;79.70;;;;;;5151320;27;20478;-74
2023/04/28 12:40:07;;;;;;;25.55;22.80;;;14.20;79.80;;;;;;5153663;27;20168;-74
2023/04/28 12:42:34;;;;;;;26.85;24.05;;;14.10;80.00;;;;;;5139686;27;20062;-74
2023/04/28 12:45:00;;;;;;;25.70;22.95;;;14.10;80.30;;;;;;5133453;27;20038;-75
2023/04/28 12:47:25;;;;;;;25.88;23.38;;;14.10;80.50;;;;;;5136661;27;20030;-74
2023/04/28 12:49:52;;;;;;;28.02;24.85;;;14.10;80.50;;;;;;5153872;27;20442;-74
2023/04/28 12:52:21;;;;;;;29.63;26.55;;;14.10;80.70;;;;;;5134679;27;20069;-74
2023/04/28 12:54:47;;;;;;;28.98;26.08;;;14.10;80.90;;;;;;5151947;27;20432;-73
2023/04/28 12:57:17;;;;;;;29.85;26.92;;;14.10;81.20;;;;;;5153577;27;20062;-75
2023/04/28 12:59:44;;;;;;;30.35;27.33;;;14.10;81.60;;;;;;5127749;27;20113;-75
2023/04/28 13:02:10;;;;;;;31.23;28.20;;;14.10;81.80;;;;;;5153827;27;20095;-74
2023/04/28 13:04:35;;;;;;;30.98;27.80;;;14.10;82.00;;;;;;5136816;27;20046;-75
2023/04/28 13:07:01;;;;;;;29.77;26.77;;;14.10;82.30;;;;;;5136298;27;20087;-74
2023/04/28 13:09:27;;;;;;;33.35;30.05;;;14.10;82.50;;;;;;5132576;27;20513;-74
2023/04/28 13:11:53;;;;;;;31.77;28.63;;;14.10;82.70;;;;;;5152411;27;20034;-74